createdAt,value
2022-12-03T00:03:36.075Z,27.33
2022-12-03T00:06:24.268Z,26.60
2022-12-03T00:09:11.351Z,23.35
2022-12-03T00:11:58.375Z,27.67
2022-12-03T00:14:45.447Z,28.20
2022-12-03T00:17:32.513Z,29.30
2022-12-03T00:20:22.831Z,26.08
2022-12-03T00:23:09.904Z,25.40
2022-12-03T00:25:57.115Z,27.52
2022-12-03T00:28:44.290Z,29.05
2022-12-03T00:31:31.369Z,28.83
2022-12-03T00:34:18.500Z,26.05
2022-12-03T00:37:05.638Z,27.10
2022-12-03T00:39:52.653Z,27.33
2022-12-03T00:42:39.733Z,27.67
2022-12-03T00:45:26.736Z,27.45
2022-12-03T00:48:13.760Z,29.55
2022-12-03T00:51:00.790Z,37.28
2022-12-03T00:53:47.869Z,28.55
2022-12-03T00:56:34.923Z,30.25
2022-12-03T00:59:21.958Z,28.38
2022-12-03T01:02:09.197Z,27.60
2022-12-03T01:04:56.629Z,27.48
2022-12-03T01:07:45.577Z,27.85
2022-12-03T01:10:32.647Z,27.52
2022-12-03T01:13:19.664Z,26.70
2022-12-03T01:16:10.061Z,28.15
2022-12-03T01:18:57.231Z,29.17
2022-12-03T01:21:46.426Z,29.98
2022-12-03T01:24:33.519Z,20.77
2022-12-03T01:27:20.668Z,28.55
2022-12-03T01:30:08.694Z,29.10
2022-12-03T01:32:55.751Z,27.10
2022-12-03T01:35:42.805Z,26.83
2022-12-03T01:38:29.828Z,29.58
2022-12-03T01:41:18.644Z,31.90
2022-12-03T01:44:21.273Z,29.15
2022-12-03T01:47:15.136Z,27.42
2022-12-03T01:50:06.831Z,28.85
2022-12-03T01:52:56.523Z,30.30
2022-12-03T01:55:48.314Z,28.02
2022-12-03T01:58:35.798Z,33.33
2022-12-03T02:01:22.899Z,26.90
2022-12-03T02:04:14.274Z,27.08
2022-12-03T02:07:22.946Z,28.85
2022-12-03T02:10:13.243Z,27.27
2022-12-03T02:13:05.047Z,25.35
2022-12-03T02:15:52.246Z,28.13
2022-12-03T02:18:39.398Z,24.70
2022-12-03T02:21:58.658Z,30.88
2022-12-03T02:25:09.260Z,27.77
2022-12-03T02:27:56.512Z,26.52
2022-12-03T02:30:45.240Z,26.20
2022-12-03T02:33:32.677Z,28.92
2022-12-03T02:36:20.817Z,28.23
2022-12-03T02:39:07.935Z,28.55
2022-12-03T02:42:13.576Z,24.55
2022-12-03T02:45:12.511Z,27.60
2022-12-03T02:48:02.899Z,27.50
2022-12-03T02:50:57.604Z,26.98
2022-12-03T02:53:47.718Z,34.08
2022-12-03T02:56:35.021Z,27.25
2022-12-03T02:59:22.228Z,25.85
2022-12-03T03:02:13.815Z,26.75
2022-12-03T03:05:00.970Z,28.50
2022-12-03T03:07:49.013Z,26.20
2022-12-03T03:10:39.217Z,26.52
2022-12-03T03:16:13.293Z,29.05
2022-12-03T03:19:01.059Z,24.42
2022-12-03T03:21:48.198Z,24.75
2022-12-03T03:24:35.276Z,27.33
2022-12-03T03:27:22.336Z,22.88
2022-12-03T03:30:10.381Z,25.73
2022-12-03T03:32:57.820Z,28.08
2022-12-03T03:35:47.386Z,24.30
2022-12-03T03:38:35.761Z,25.13
2022-12-03T03:41:23.086Z,23.00
2022-12-03T03:44:10.616Z,23.15
2022-12-03T03:46:57.740Z,23.05
2022-12-03T03:49:45.010Z,23.15
2022-12-03T03:52:32.162Z,21.20
2022-12-03T03:55:20.590Z,25.15
2022-12-03T03:58:07.852Z,20.70
2022-12-03T04:00:55.024Z,21.95
2022-12-03T04:03:42.229Z,21.58
2022-12-03T04:06:29.339Z,26.38
2022-12-03T04:09:16.376Z,22.55
2022-12-03T04:12:22.275Z,24.50
2022-12-03T04:15:09.681Z,19.08
2022-12-03T04:18:36.275Z,22.05
2022-12-03T04:21:45.355Z,20.02
2022-12-03T04:24:32.398Z,23.67
2022-12-03T04:27:38.091Z,21.15
2022-12-03T04:30:25.323Z,21.50
2022-12-03T04:33:31.143Z,23.08
2022-12-03T04:36:18.195Z,20.60
2022-12-03T04:39:05.455Z,20.33
2022-12-03T04:41:52.528Z,20.35
2022-12-03T04:44:39.640Z,21.15
2022-12-03T04:47:26.696Z,21.50
2022-12-03T04:50:13.784Z,19.90
2022-12-03T04:53:00.775Z,21.60
2022-12-03T04:55:47.898Z,20.40
2022-12-03T04:58:34.929Z,20.73
2022-12-03T05:01:22.141Z,22.80
2022-12-03T05:04:09.394Z,20.48
2022-12-03T05:06:56.599Z,20.55
2022-12-03T05:09:43.649Z,20.02
2022-12-03T05:12:30.730Z,23.85
2022-12-03T05:15:17.956Z,19.88
2022-12-03T05:18:05.230Z,22.13
2022-12-03T05:20:53.656Z,20.50
2022-12-03T05:23:41.003Z,20.13
2022-12-03T05:26:28.169Z,18.30
2022-12-03T05:29:15.188Z,19.60
2022-12-03T05:32:02.261Z,20.40
2022-12-03T05:34:49.401Z,20.13
2022-12-03T05:37:36.437Z,20.52
2022-12-03T05:40:24.342Z,23.17
2022-12-03T05:43:11.464Z,19.35
2022-12-03T05:45:58.564Z,19.63
2022-12-03T05:48:45.723Z,22.60
2022-12-03T05:51:32.755Z,19.80
2022-12-03T05:54:19.866Z,21.50
2022-12-03T05:57:07.116Z,20.02
2022-12-03T05:59:54.196Z,23.40
2022-12-03T06:02:41.850Z,20.05
2022-12-03T06:05:29.046Z,19.50
2022-12-03T06:08:16.083Z,21.70
2022-12-03T06:11:03.269Z,18.50
2022-12-03T06:13:50.270Z,19.52
2022-12-03T06:16:37.401Z,21.98
2022-12-03T06:19:24.487Z,21.92
2022-12-03T06:22:11.514Z,20.15
2022-12-03T06:25:04.831Z,18.95
2022-12-03T06:27:53.489Z,20.63
2022-12-03T06:30:40.521Z,22.13
2022-12-03T06:33:27.565Z,21.67
2022-12-03T06:36:17.701Z,22.75
2022-12-03T06:39:07.036Z,21.13
2022-12-03T06:41:54.051Z,22.63
2022-12-03T06:44:41.365Z,22.92
2022-12-03T06:47:28.361Z,23.88
2022-12-03T06:50:17.857Z,22.08
2022-12-03T06:53:04.897Z,24.48
2022-12-03T06:55:51.919Z,22.88
2022-12-03T06:58:38.981Z,22.35
2022-12-03T07:01:26.187Z,22.58
2022-12-03T07:04:13.309Z,20.52
2022-12-03T07:07:01.509Z,20.88
2022-12-03T07:09:48.527Z,18.95
2022-12-03T07:12:35.565Z,22.15
2022-12-03T07:15:22.542Z,21.88
2022-12-03T07:18:09.593Z,19.92
2022-12-03T07:20:56.571Z,20.60
2022-12-03T07:23:44.645Z,21.38
2022-12-03T07:26:38.572Z,19.50
2022-12-03T07:29:25.735Z,19.15
2022-12-03T07:32:12.774Z,20.90
2022-12-03T07:35:01.226Z,19.95
2022-12-03T07:37:57.597Z,22.75
2022-12-03T07:40:45.334Z,22.20
2022-12-03T07:43:32.579Z,22.38
2022-12-03T07:46:38.203Z,21.00
2022-12-03T07:49:26.833Z,21.10
2022-12-03T07:52:13.954Z,19.92
2022-12-03T07:55:01.118Z,22.17
2022-12-03T07:57:48.183Z,20.58
2022-12-03T08:00:36.398Z,19.55
2022-12-03T08:03:24.122Z,23.10
2022-12-03T08:06:11.186Z,21.40
2022-12-03T08:08:58.274Z,22.95
2022-12-03T08:11:48.408Z,21.10
2022-12-03T08:14:35.921Z,22.23
2022-12-03T08:17:59.936Z,20.98
2022-12-03T08:20:49.119Z,21.55
2022-12-03T08:23:36.672Z,21.27
2022-12-03T08:26:26.399Z,20.65
2022-12-03T08:29:16.498Z,22.30
2022-12-03T08:32:06.375Z,22.77
2022-12-03T08:34:53.699Z,22.42
2022-12-03T08:37:41.560Z,21.45
2022-12-03T08:40:36.174Z,21.48
2022-12-03T08:43:26.232Z,19.48
2022-12-03T08:46:21.234Z,22.50
2022-12-03T08:49:09.620Z,20.42
2022-12-03T08:52:01.329Z,19.60
2022-12-03T08:54:56.172Z,22.60
2022-12-03T08:57:46.616Z,22.23
2022-12-03T09:03:22.987Z,21.35
2022-12-03T09:06:10.064Z,20.40
2022-12-03T09:08:57.077Z,22.55
2022-12-03T09:11:44.723Z,22.75
2022-12-03T09:14:31.761Z,24.20
2022-12-03T09:17:18.804Z,18.77
2022-12-03T09:20:06.812Z,20.33
2022-12-03T09:22:53.892Z,20.70
2022-12-03T09:25:40.932Z,20.38
2022-12-03T09:28:28.018Z,19.67
2022-12-03T09:31:16.085Z,20.05
2022-12-03T09:34:04.871Z,22.73
2022-12-03T09:36:51.899Z,20.85
2022-12-03T09:39:39.019Z,20.92
2022-12-03T09:42:26.357Z,20.42
2022-12-03T09:45:15.271Z,20.35
2022-12-03T09:48:04.161Z,20.17
2022-12-03T09:50:51.576Z,19.00
2022-12-03T09:53:41.390Z,20.92
2022-12-03T09:56:28.870Z,19.73
2022-12-03T09:59:17.049Z,20.42
2022-12-03T10:02:22.645Z,19.23
2022-12-03T10:05:09.868Z,20.25
2022-12-03T10:08:05.548Z,20.85
2022-12-03T10:10:56.679Z,20.13
2022-12-03T10:13:43.888Z,20.02
2022-12-03T10:16:31.493Z,20.17
2022-12-03T10:19:39.753Z,21.83
2022-12-03T10:22:26.746Z,19.35
2022-12-03T10:25:16.203Z,16.98
2022-12-03T10:28:04.097Z,18.73
2022-12-03T10:30:57.997Z,19.25
2022-12-03T10:33:47.385Z,20.17
2022-12-03T10:36:34.441Z,21.08
2022-12-03T10:39:21.456Z,20.42
2022-12-03T10:42:16.608Z,17.98
2022-12-03T10:45:19.571Z,18.65
2022-12-03T10:48:16.438Z,17.50
2022-12-03T10:51:05.060Z,19.95
2022-12-03T10:53:52.176Z,17.15
2022-12-03T10:56:39.264Z,17.48
2022-12-03T10:59:31.297Z,19.27
2022-12-03T11:02:24.087Z,21.08
2022-12-03T11:05:18.419Z,18.25
2022-12-03T11:08:05.585Z,17.42
2022-12-03T11:11:13.411Z,18.85
2022-12-03T11:14:02.837Z,20.92
2022-12-03T11:16:53.032Z,17.27
2022-12-03T11:22:39.120Z,19.92
2022-12-03T11:25:28.657Z,19.50
2022-12-03T11:28:36.810Z,17.30
2022-12-03T11:31:37.503Z,16.58
2022-12-03T11:34:31.623Z,17.48
2022-12-03T11:37:18.618Z,17.90
2022-12-03T11:40:17.976Z,20.08
2022-12-03T11:43:05.574Z,18.80
2022-12-03T11:45:52.677Z,18.42
2022-12-03T11:48:46.560Z,20.50
2022-12-03T11:51:33.625Z,19.60
2022-12-03T11:54:23.449Z,17.27
2022-12-03T11:57:29.778Z,18.55
2022-12-03T12:00:23.115Z,18.17
2022-12-03T12:03:24.895Z,20.70
2022-12-03T12:06:18.174Z,19.92
2022-12-03T12:09:05.227Z,19.95
2022-12-03T12:11:52.212Z,19.00
2022-12-03T12:14:39.224Z,19.80
2022-12-03T12:17:44.246Z,20.17
2022-12-03T12:20:31.315Z,23.15
2022-12-03T12:23:25.816Z,23.05
2022-12-03T12:26:13.066Z,20.67
2022-12-03T12:29:00.070Z,22.83
2022-12-03T12:31:53.674Z,21.70
2022-12-03T12:34:43.811Z,19.92
2022-12-03T12:37:47.310Z,23.60
2022-12-03T12:40:38.781Z,20.00
2022-12-03T12:43:28.042Z,22.90
2022-12-03T12:49:27.037Z,21.25
2022-12-03T12:52:15.096Z,21.63
2022-12-03T12:55:05.174Z,22.85
2022-12-03T12:57:52.572Z,19.67
2022-12-03T13:00:40.391Z,25.85
2022-12-03T13:03:32.971Z,23.60
2022-12-03T13:06:26.196Z,23.33
2022-12-03T13:09:22.891Z,20.40
2022-12-03T13:12:21.125Z,26.63
2022-12-03T13:15:46.782Z,25.02
2022-12-03T13:18:44.648Z,24.42
2022-12-03T13:21:44.070Z,25.80
2022-12-03T13:24:45.537Z,24.75
2022-12-03T13:27:35.517Z,23.55
2022-12-03T13:30:23.998Z,23.83
2022-12-03T13:33:26.137Z,28.48
2022-12-03T13:36:16.437Z,26.13
2022-12-03T13:39:15.723Z,26.40
2022-12-03T13:42:33.420Z,25.97
2022-12-03T13:45:20.504Z,28.38
2022-12-03T13:48:31.615Z,31.65
2022-12-03T13:51:27.583Z,27.52
2022-12-03T13:54:21.625Z,23.80
2022-12-03T13:57:08.651Z,25.60
2022-12-03T13:59:56.088Z,24.33
2022-12-03T14:02:43.662Z,27.50
2022-12-03T14:05:31.128Z,22.05
2022-12-03T14:08:18.226Z,25.17
2022-12-03T14:11:05.478Z,25.48
2022-12-03T14:13:52.467Z,25.17
2022-12-03T14:16:39.687Z,29.48
2022-12-03T14:19:26.862Z,24.80
2022-12-03T14:22:14.048Z,26.77
2022-12-03T14:25:01.035Z,26.85
2022-12-03T14:27:48.103Z,26.73
2022-12-03T14:30:36.017Z,28.92
2022-12-03T14:33:23.063Z,29.48
2022-12-03T14:36:10.204Z,26.35
2022-12-03T14:38:57.260Z,26.75
2022-12-03T14:42:03.121Z,24.38
2022-12-03T14:44:51.401Z,25.02
2022-12-03T14:47:38.588Z,27.83
2022-12-03T14:50:25.614Z,27.52
2022-12-03T14:53:12.645Z,25.15
2022-12-03T14:55:59.916Z,29.33
2022-12-03T14:58:47.329Z,25.65
2022-12-03T15:01:34.588Z,27.35
2022-12-03T15:04:21.832Z,24.90
2022-12-03T15:07:09.800Z,23.77
2022-12-03T15:09:57.133Z,24.42
2022-12-03T15:12:44.426Z,24.77
2022-12-03T15:15:31.448Z,26.00
2022-12-03T15:18:18.860Z,25.77
2022-12-03T15:21:05.999Z,25.35
2022-12-03T15:23:53.046Z,26.38
2022-12-03T15:26:40.056Z,28.95
2022-12-03T15:29:27.156Z,26.52
2022-12-03T15:32:14.216Z,25.40
2022-12-03T15:35:01.438Z,27.98
2022-12-03T15:37:48.579Z,26.52
2022-12-03T15:40:36.112Z,27.27
2022-12-03T15:43:23.442Z,26.75
2022-12-03T15:46:10.590Z,30.25
2022-12-03T15:48:57.850Z,27.25
2022-12-03T15:51:44.999Z,28.55
2022-12-03T15:54:32.358Z,30.45
2022-12-03T15:57:20.027Z,26.63
2022-12-03T16:00:08.923Z,30.63
2022-12-03T16:02:56.399Z,29.65
2022-12-03T16:05:43.595Z,31.63
2022-12-03T16:08:31.108Z,29.67
2022-12-03T16:11:18.276Z,28.65
2022-12-03T16:14:05.536Z,26.17
2022-12-03T16:16:53.070Z,28.30
2022-12-03T16:19:40.213Z,27.88
2022-12-03T16:22:28.442Z,22.92
2022-12-03T16:25:16.150Z,27.35
2022-12-03T16:28:04.987Z,26.02
2022-12-03T16:30:52.325Z,28.63
2022-12-03T16:33:39.918Z,26.92
2022-12-03T16:36:27.498Z,28.65
2022-12-03T16:39:16.776Z,27.00
2022-12-03T16:42:08.973Z,28.17
2022-12-03T16:44:59.965Z,23.15
2022-12-03T16:47:47.951Z,23.23
2022-12-03T16:50:37.713Z,22.20
2022-12-03T16:53:26.731Z,25.10
2022-12-03T16:56:14.581Z,26.05
2022-12-03T16:59:01.937Z,26.40
2022-12-03T17:01:49.562Z,26.77
2022-12-03T17:04:37.090Z,27.13
2022-12-03T17:07:24.256Z,24.45
2022-12-03T17:10:11.768Z,24.73
2022-12-03T17:13:14.742Z,27.13
2022-12-03T17:16:02.828Z,27.77
2022-12-03T17:18:52.647Z,23.65
2022-12-03T17:21:41.007Z,24.67
2022-12-03T17:24:28.453Z,26.05
2022-12-03T17:27:15.950Z,25.58
2022-12-03T17:30:04.458Z,25.15
2022-12-03T17:32:51.961Z,24.23
2022-12-03T17:35:39.404Z,30.73
2022-12-03T17:38:27.033Z,28.63
2022-12-03T17:41:15.706Z,30.23
2022-12-03T17:44:10.207Z,26.77
2022-12-03T17:46:59.534Z,28.38
2022-12-03T17:49:46.761Z,29.70
2022-12-03T17:52:34.049Z,28.90
2022-12-03T17:55:30.968Z,26.73
2022-12-03T17:58:23.536Z,27.70
2022-12-03T18:01:11.166Z,28.77
2022-12-03T18:03:58.839Z,30.20
2022-12-03T18:06:46.358Z,31.40
2022-12-03T18:09:33.747Z,30.30
2022-12-03T18:12:21.632Z,32.75
2022-12-03T18:15:10.371Z,30.70
2022-12-03T18:17:57.556Z,28.63
2022-12-03T18:20:45.191Z,29.92
2022-12-03T18:23:35.477Z,29.80
2022-12-03T18:26:23.551Z,31.42
2022-12-03T18:29:11.067Z,29.33
2022-12-03T18:31:58.367Z,27.75
2022-12-03T18:34:46.731Z,26.92
2022-12-03T18:37:37.886Z,30.80
2022-12-03T18:43:16.065Z,32.95
2022-12-03T18:46:04.721Z,27.15
2022-12-03T18:48:53.251Z,26.05
2022-12-03T18:51:40.960Z,28.02
2022-12-03T18:54:28.336Z,31.65
2022-12-03T18:57:16.328Z,25.80
2022-12-03T19:00:13.052Z,29.90
2022-12-03T19:03:03.587Z,29.98
2022-12-03T19:05:51.974Z,30.10
2022-12-03T19:08:42.131Z,31.20
2022-12-03T19:14:17.778Z,25.92
2022-12-03T19:17:05.533Z,29.90
2022-12-03T19:19:53.980Z,29.70
2022-12-03T19:22:42.200Z,30.00
2022-12-03T19:25:30.163Z,30.23
2022-12-03T19:28:19.011Z,29.02
2022-12-03T19:31:13.985Z,30.00
2022-12-03T19:34:01.867Z,32.33
2022-12-03T19:36:49.864Z,31.85
2022-12-03T19:39:37.450Z,27.02
2022-12-03T19:42:25.302Z,28.42
2022-12-03T19:45:13.458Z,30.25
2022-12-03T19:48:02.709Z,30.38
2022-12-03T19:51:07.988Z,29.73
2022-12-03T19:54:02.573Z,29.02
2022-12-03T19:56:52.627Z,33.38
2022-12-03T19:59:40.638Z,29.52
2022-12-03T20:02:28.822Z,31.98
2022-12-03T20:05:16.830Z,29.98
2022-12-03T20:08:07.137Z,32.22
2022-12-03T20:10:54.775Z,29.75
2022-12-03T20:13:43.656Z,29.20
2022-12-03T20:16:33.882Z,27.48
2022-12-03T20:19:21.978Z,28.08
2022-12-03T20:22:11.260Z,28.40
2022-12-03T20:24:59.921Z,27.73
2022-12-03T20:27:47.919Z,25.67
2022-12-03T20:30:35.593Z,30.50
2022-12-03T20:33:24.811Z,30.42
2022-12-03T20:36:14.949Z,30.43
2022-12-03T20:44:43.018Z,26.83
2022-12-03T20:47:30.734Z,30.38
2022-12-03T20:50:19.141Z,27.77
2022-12-03T20:53:24.426Z,33.88
2022-12-03T20:56:21.388Z,28.45
2022-12-03T20:59:12.889Z,25.27
2022-12-03T21:02:00.891Z,27.38
2022-12-03T21:04:49.641Z,31.33
2022-12-03T21:07:37.300Z,26.85
2022-12-03T21:10:36.780Z,30.02
2022-12-03T21:13:29.246Z,30.63
2022-12-03T21:16:39.270Z,31.13
2022-12-03T21:19:29.062Z,31.88
2022-12-03T21:22:16.680Z,27.33
2022-12-03T21:25:04.562Z,27.88
2022-12-03T21:27:52.071Z,28.92
2022-12-03T21:30:40.342Z,32.53
2022-12-03T21:33:28.502Z,30.02
2022-12-03T21:36:16.937Z,35.55
2022-12-03T21:39:05.141Z,28.95
2022-12-03T21:42:22.290Z,31.45
2022-12-03T21:44:59.748Z,30.23
2022-12-03T21:47:48.643Z,30.50
2022-12-03T21:50:37.487Z,30.77
2022-12-03T21:53:25.170Z,26.55
2022-12-03T21:56:15.910Z,30.60
2022-12-03T21:59:04.392Z,28.02
2022-12-03T22:01:51.863Z,29.15
2022-12-03T22:04:40.543Z,25.85
2022-12-03T22:07:28.056Z,23.25
2022-12-03T22:10:15.341Z,31.70
2022-12-03T22:13:02.570Z,30.83
2022-12-03T22:15:49.711Z,26.92
2022-12-03T22:18:37.441Z,27.55
2022-12-03T22:21:25.650Z,26.95
2022-12-03T22:24:12.698Z,29.27
2022-12-03T22:26:59.736Z,27.73
2022-12-03T22:29:46.786Z,27.77
2022-12-03T22:32:33.877Z,30.73
2022-12-03T22:35:21.165Z,29.92
2022-12-03T22:38:08.170Z,28.55
2022-12-03T22:40:55.407Z,26.58
2022-12-03T22:43:42.990Z,23.95
2022-12-03T22:46:30.185Z,26.77
2022-12-03T22:49:17.368Z,28.42
2022-12-03T22:52:04.448Z,24.25
2022-12-03T22:54:51.476Z,28.02
2022-12-03T22:57:38.518Z,25.88
2022-12-03T23:00:32.391Z,23.58
2022-12-03T23:03:19.799Z,22.48
2022-12-03T23:06:11.660Z,25.38
2022-12-03T23:08:59.389Z,23.27
2022-12-03T23:11:46.926Z,24.30
2022-12-03T23:14:33.950Z,21.33
2022-12-03T23:17:20.970Z,25.52
2022-12-03T23:20:08.589Z,20.83
2022-12-03T23:22:56.318Z,22.20
2022-12-03T23:25:43.815Z,23.05
2022-12-03T23:28:33.230Z,23.58
2022-12-03T23:31:29.936Z,22.23
2022-12-03T23:34:17.156Z,21.35
2022-12-03T23:37:06.223Z,26.38
2022-12-03T23:39:53.615Z,23.05
2022-12-03T23:42:40.834Z,21.45
2022-12-03T23:45:27.897Z,22.35
2022-12-03T23:48:14.978Z,23.25
2022-12-03T23:51:08.026Z,22.98
2022-12-03T23:53:55.798Z,22.23
2022-12-03T23:56:42.820Z,19.83
2022-12-03T23:59:30.020Z,20.98
